createdAt,value
2023-01-26T00:04:54.000Z,1.23
2023-01-26T00:09:54.000Z,1.29
2023-01-26T00:14:54.000Z,1.29
2023-01-26T00:19:54.000Z,1.28
2023-01-26T00:24:54.000Z,1.26
2023-01-26T00:29:54.000Z,1.28
2023-01-26T00:34:54.000Z,1.24
2023-01-26T00:39:54.000Z,1.26
2023-01-26T00:44:54.000Z,1.20
2023-01-26T00:49:54.000Z,1.18
2023-01-26T00:54:54.000Z,1.17
2023-01-26T00:59:54.000Z,1.17
2023-01-26T01:04:54.000Z,1.19
2023-01-26T01:09:54.000Z,1.21
2023-01-26T01:14:54.000Z,1.23
2023-01-26T01:19:54.000Z,1.20
2023-01-26T01:24:54.000Z,1.20
2023-01-26T01:29:54.000Z,1.18
2023-01-26T01:34:54.000Z,1.14
2023-01-26T01:39:54.000Z,1.14
2023-01-26T01:44:54.000Z,1.14
2023-01-26T01:49:54.000Z,1.12
2023-01-26T01:54:54.000Z,1.12
2023-01-26T01:59:54.000Z,1.14
2023-01-26T02:04:54.000Z,1.17
2023-01-26T02:09:54.000Z,1.16
2023-01-26T02:14:54.000Z,1.14
2023-01-26T02:19:54.000Z,1.13
2023-01-26T02:24:54.000Z,1.13
2023-01-26T02:29:54.000Z,1.13
2023-01-26T02:34:54.000Z,1.11
2023-01-26T02:39:54.000Z,1.11
2023-01-26T02:44:54.000Z,1.11
2023-01-26T02:49:54.000Z,1.06
2023-01-26T02:54:54.000Z,1.08
2023-01-26T02:59:54.000Z,1.09
2023-01-26T03:04:54.000Z,1.08
2023-01-26T03:09:54.000Z,1.08
2023-01-26T03:14:55.000Z,1.09
2023-01-26T03:19:54.000Z,1.10
2023-01-26T03:24:55.000Z,1.09
2023-01-26T03:29:55.000Z,1.08
2023-01-26T03:34:54.000Z,1.08
2023-01-26T03:39:54.000Z,1.09
2023-01-26T03:44:55.000Z,1.09
2023-01-26T03:49:54.000Z,1.10
2023-01-26T03:54:54.000Z,1.06
2023-01-26T03:59:54.000Z,1.08
2023-01-26T04:04:54.000Z,1.09
2023-01-26T04:09:54.000Z,1.05
2023-01-26T04:14:54.000Z,1.03
2023-01-26T04:19:54.000Z,1.03
2023-01-26T04:24:54.000Z,1.05
2023-01-26T04:29:54.000Z,1.02
2023-01-26T04:34:54.000Z,1.01
2023-01-26T04:39:54.000Z,1.01
2023-01-26T04:44:54.000Z,1.01
2023-01-26T04:49:54.000Z,1.01
2023-01-26T04:54:54.000Z,1.01
2023-01-26T04:59:54.000Z,0.98
2023-01-26T05:04:54.000Z,1.02
2023-01-26T05:09:54.000Z,1.02
2023-01-26T05:14:54.000Z,1.01
2023-01-26T05:19:54.000Z,1.02
2023-01-26T05:24:54.000Z,1.02
2023-01-26T05:29:54.000Z,0.99
2023-01-26T05:34:54.000Z,0.99
2023-01-26T05:39:54.000Z,0.96
2023-01-26T05:44:54.000Z,0.97
2023-01-26T05:49:54.000Z,0.97
2023-01-26T05:54:54.000Z,0.98
2023-01-26T05:59:54.000Z,0.98
2023-01-26T06:04:54.000Z,0.98
2023-01-26T06:09:54.000Z,0.98
2023-01-26T06:14:54.000Z,0.99
2023-01-26T06:19:54.000Z,0.98
2023-01-26T06:24:54.000Z,0.97
2023-01-26T06:29:54.000Z,0.91
2023-01-26T06:34:54.000Z,0.89
2023-01-26T06:39:54.000Z,0.91
2023-01-26T06:44:54.000Z,0.91
2023-01-26T06:49:54.000Z,0.92
2023-01-26T06:54:54.000Z,0.91
2023-01-26T06:59:54.000Z,0.87
2023-01-26T07:04:54.000Z,0.88
2023-01-26T07:09:54.000Z,0.88
2023-01-26T07:14:54.000Z,0.88
2023-01-26T07:19:54.000Z,0.86
2023-01-26T07:24:54.000Z,0.88
2023-01-26T07:29:54.000Z,0.91
2023-01-26T07:34:54.000Z,0.93
2023-01-26T07:39:54.000Z,0.93
2023-01-26T07:44:54.000Z,0.94
2023-01-26T07:49:54.000Z,0.95
2023-01-26T07:54:54.000Z,0.96
2023-01-26T07:59:54.000Z,0.97
2023-01-26T08:04:54.000Z,0.99
2023-01-26T08:09:54.000Z,0.99
2023-01-26T08:14:54.000Z,0.99
2023-01-26T08:19:54.000Z,0.97
2023-01-26T08:24:55.000Z,0.95
2023-01-26T08:29:54.000Z,0.97
2023-01-26T08:34:54.000Z,0.99
2023-01-26T08:39:54.000Z,0.98
2023-01-26T08:44:54.000Z,1.02
2023-01-26T08:49:55.000Z,1.04
2023-01-26T08:54:54.000Z,1.03
2023-01-26T08:59:54.000Z,1.06
2023-01-26T09:04:54.000Z,1.04
2023-01-26T09:09:54.000Z,1.08
2023-01-26T09:14:54.000Z,1.09
2023-01-26T09:19:54.000Z,1.11
2023-01-26T09:24:54.000Z,1.11
2023-01-26T09:29:54.000Z,1.10
2023-01-26T09:34:54.000Z,1.14
2023-01-26T09:39:55.000Z,1.19
2023-01-26T09:44:54.000Z,1.19
2023-01-26T09:49:54.000Z,1.21
2023-01-26T09:54:54.000Z,1.26
2023-01-26T09:59:54.000Z,1.28
2023-01-26T10:04:54.000Z,1.27
2023-01-26T10:09:54.000Z,1.28
2023-01-26T10:14:54.000Z,1.31
2023-01-26T10:19:54.000Z,1.32
2023-01-26T10:24:54.000Z,1.31
2023-01-26T10:29:54.000Z,1.31
2023-01-26T10:34:55.000Z,1.35
2023-01-26T10:39:54.000Z,1.35
2023-01-26T10:44:55.000Z,1.41
2023-01-26T10:49:54.000Z,1.39
2023-01-26T10:54:55.000Z,1.41
2023-01-26T10:59:54.000Z,1.38
2023-01-26T11:04:55.000Z,1.38
2023-01-26T11:09:54.000Z,1.34
2023-01-26T11:14:54.000Z,1.36
2023-01-26T11:19:54.000Z,1.36
2023-01-26T11:24:55.000Z,1.41
2023-01-26T11:29:55.000Z,1.45
2023-01-26T11:34:55.000Z,1.42
2023-01-26T11:39:54.000Z,1.45
2023-01-26T11:44:55.000Z,1.42
2023-01-26T11:49:55.000Z,1.45
2023-01-26T11:54:54.000Z,1.45
2023-01-26T11:59:55.000Z,1.43
2023-01-26T12:04:55.000Z,1.43
2023-01-26T12:09:55.000Z,1.43
2023-01-26T12:14:55.000Z,1.43
2023-01-26T12:19:55.000Z,1.43
2023-01-26T12:24:55.000Z,1.36
2023-01-26T12:29:55.000Z,1.39
2023-01-26T12:34:55.000Z,1.49
2023-01-26T12:39:55.000Z,1.51
2023-01-26T12:44:55.000Z,1.53
2023-01-26T12:49:55.000Z,1.50
2023-01-26T12:54:55.000Z,1.49
2023-01-26T12:59:55.000Z,1.41
2023-01-26T13:04:55.000Z,1.35
2023-01-26T13:09:55.000Z,1.34
2023-01-26T13:14:55.000Z,1.38
2023-01-26T13:19:55.000Z,1.38
2023-01-26T13:24:55.000Z,1.37
2023-01-26T13:29:55.000Z,1.34
2023-01-26T13:34:55.000Z,1.35
2023-01-26T13:40:10.000Z,1.34
2023-01-26T13:44:55.000Z,1.29
2023-01-26T13:49:55.000Z,1.32
2023-01-26T13:54:55.000Z,1.34
2023-01-26T13:59:55.000Z,1.31
2023-01-26T14:04:55.000Z,1.31
2023-01-26T14:09:55.000Z,1.26
2023-01-26T14:14:55.000Z,1.22
2023-01-26T14:19:55.000Z,1.22
2023-01-26T14:24:55.000Z,1.20
2023-01-26T14:29:55.000Z,1.19
2023-01-26T14:34:55.000Z,1.19
2023-01-26T14:39:55.000Z,1.16
2023-01-26T14:44:55.000Z,1.20
2023-01-26T14:49:55.000Z,1.20
2023-01-26T14:54:55.000Z,1.17
2023-01-26T14:59:55.000Z,1.21
2023-01-26T15:04:55.000Z,1.18
2023-01-26T15:09:55.000Z,1.21
2023-01-26T15:14:55.000Z,1.17
2023-01-26T15:19:55.000Z,1.19
2023-01-26T15:24:55.000Z,1.16
2023-01-26T15:29:55.000Z,1.14
2023-01-26T15:34:55.000Z,1.11
2023-01-26T15:39:55.000Z,1.11
2023-01-26T15:44:55.000Z,1.13
2023-01-26T15:49:55.000Z,1.10
2023-01-26T15:54:55.000Z,1.07
2023-01-26T15:59:55.000Z,1.04
2023-01-26T16:04:55.000Z,1.02
2023-01-26T16:09:55.000Z,1.04
2023-01-26T16:14:55.000Z,1.01
2023-01-26T16:19:55.000Z,0.99
2023-01-26T16:24:55.000Z,1.01
2023-01-26T16:29:55.000Z,0.99
2023-01-26T16:34:55.000Z,0.99
2023-01-26T16:39:55.000Z,0.95
2023-01-26T16:44:55.000Z,0.94
2023-01-26T16:49:55.000Z,0.94
2023-01-26T16:54:55.000Z,0.93
2023-01-26T16:59:55.000Z,0.92
2023-01-26T17:04:55.000Z,0.90
2023-01-26T17:09:55.000Z,0.92
2023-01-26T17:14:55.000Z,0.88
2023-01-26T17:19:55.000Z,0.88
2023-01-26T17:24:55.000Z,0.88
2023-01-26T17:29:55.000Z,0.90
2023-01-26T17:34:55.000Z,0.86
2023-01-26T17:39:55.000Z,0.89
2023-01-26T17:44:55.000Z,0.87
2023-01-26T17:49:55.000Z,0.89
2023-01-26T17:54:55.000Z,0.84
2023-01-26T17:59:55.000Z,0.87
2023-01-26T18:04:55.000Z,0.86
2023-01-26T18:09:55.000Z,0.87
2023-01-26T18:14:55.000Z,0.86
2023-01-26T18:19:55.000Z,0.87
2023-01-26T18:24:55.000Z,0.86
2023-01-26T18:29:55.000Z,0.84
2023-01-26T18:34:55.000Z,0.86
2023-01-26T18:39:55.000Z,0.83
2023-01-26T18:44:55.000Z,0.83
2023-01-26T18:49:55.000Z,0.84
2023-01-26T18:54:55.000Z,0.83
2023-01-26T18:59:55.000Z,0.82
2023-01-26T19:04:55.000Z,0.80
2023-01-26T19:09:56.000Z,0.77
2023-01-26T19:14:55.000Z,0.79
2023-01-26T19:19:55.000Z,0.77
2023-01-26T19:24:55.000Z,0.78
2023-01-26T19:29:56.000Z,0.74
2023-01-26T19:34:56.000Z,0.74
2023-01-26T19:39:55.000Z,0.76
2023-01-26T19:44:55.000Z,0.74
2023-01-26T19:49:56.000Z,0.71
2023-01-26T19:54:55.000Z,0.72
2023-01-26T19:59:59.000Z,0.72
2023-01-26T20:04:55.000Z,0.71
2023-01-26T20:09:55.000Z,0.72
2023-01-26T20:14:55.000Z,0.73
2023-01-26T20:19:55.000Z,0.72
2023-01-26T20:24:56.000Z,0.66
2023-01-26T20:29:56.000Z,0.69
2023-01-26T20:34:56.000Z,0.65
2023-01-26T20:39:55.000Z,0.66
2023-01-26T20:44:55.000Z,0.65
2023-01-26T20:49:55.000Z,0.64
2023-01-26T20:55:06.000Z,0.62
2023-01-26T21:00:17.000Z,0.63
2023-01-26T21:05:34.000Z,0.63
2023-01-26T21:10:00.000Z,0.63
2023-01-26T21:15:09.000Z,0.66
2023-01-26T21:20:15.000Z,0.65
2023-01-26T21:24:56.000Z,0.66
2023-01-26T21:30:25.000Z,0.63
2023-01-26T21:35:07.000Z,0.63
2023-01-26T21:39:57.000Z,0.63
2023-01-26T21:44:55.000Z,0.66
2023-01-26T21:49:56.000Z,0.65
2023-01-26T21:54:56.000Z,0.64
2023-01-26T21:59:56.000Z,0.64
2023-01-26T22:04:56.000Z,0.65
2023-01-26T22:10:02.000Z,0.63
2023-01-26T22:15:01.000Z,0.63
2023-01-26T22:19:40.000Z,0.66
2023-01-26T22:24:56.000Z,0.66
2023-01-26T22:30:26.000Z,0.63
2023-01-26T22:34:57.000Z,0.66
2023-01-26T22:39:56.000Z,0.67
2023-01-26T22:45:00.000Z,0.65
2023-01-26T22:49:41.000Z,0.65
2023-01-26T22:54:58.000Z,0.64
2023-01-26T23:00:02.000Z,0.62
2023-01-26T23:05:25.000Z,0.64
2023-01-26T23:09:56.000Z,0.63
2023-01-26T23:14:56.000Z,0.59
2023-01-26T23:19:57.000Z,0.61
2023-01-26T23:24:55.000Z,0.60
2023-01-26T23:29:58.000Z,0.58
2023-01-26T23:35:13.000Z,0.61
2023-01-26T23:40:02.000Z,0.57
2023-01-26T23:45:11.000Z,0.54
2023-01-26T23:49:40.000Z,0.58
2023-01-26T23:55:10.000Z,0.52
2023-01-26T23:59:57.000Z,0.55
